TimePDT,TemperatureF,Dew PointF,Humidity,Sea Level PressureIn,VisibilityMPH,Wind Direction,Wind SpeedMPH,Gust SpeedMPH,PrecipitationIn,Events,Conditions,WindDirDegrees,DateUTC
12:53 AM,70.0,44.1,39,29.94,10.0,West,13.8,-,N/A,,Clear,260,2013-03-31 07:53:00
1:53 AM,70.0,44.1,39,29.94,10.0,West,12.7,-,N/A,,Clear,260,2013-03-31 08:53:00
2:53 AM,70.0,39.0,32,29.93,10.0,West,13.8,-,N/A,,Clear,260,2013-03-31 09:53:00
3:53 AM,70.0,30.9,24,29.92,10.0,West,15.0,-,N/A,,Clear,270,2013-03-31 10:53:00
4:53 AM,69.1,35.1,29,29.92,10.0,West,13.8,-,N/A,,Clear,270,2013-03-31 11:53:00
5:53 AM,66.0,39.0,37,29.94,10.0,WNW,8.1,-,N/A,,Clear,290,2013-03-31 12:53:00
6:53 AM,66.9,43.0,42,29.95,10.0,West,10.4,-,N/A,,Clear,280,2013-03-31 13:53:00
7:53 AM,71.1,46.0,41,29.96,10.0,West,10.4,-,N/A,,Clear,270,2013-03-31 14:53:00
8:53 AM,75.0,46.9,37,29.97,10.0,West,12.7,-,N/A,,Clear,270,2013-03-31 15:53:00
9:53 AM,78.1,46.9,33,29.98,10.0,NW,10.4,19.6,N/A,,Clear,320,2013-03-31 16:53:00
10:53 AM,80.1,46.0,30,29.98,10.0,West,18.4,-,N/A,,Clear,260,2013-03-31 17:53:00
11:53 AM,82.9,44.1,25,29.98,10.0,WSW,16.1,24.2,N/A,,Clear,240,2013-03-31 18:53:00
12:53 PM,84.0,44.1,25,29.96,10.0,West,16.1,-,N/A,,Clear,260,2013-03-31 19:53:00
1:53 PM,82.9,43.0,24,29.93,10.0,West,23.0,31.1,N/A,,Clear,260,2013-03-31 20:53:00
2:53 PM,82.0,43.0,25,29.91,10.0,West,21.9,31.1,N/A,,Clear,260,2013-03-31 21:53:00
3:53 PM,81.0,42.1,25,29.90,10.0,West,20.7,28.8,N/A,,Clear,260,2013-03-31 22:53:00
4:53 PM,80.1,41.0,25,29.89,10.0,West,18.4,32.2,N/A,,Clear,270,2013-03-31 23:53:00
5:53 PM,78.1,39.0,25,29.88,10.0,West,21.9,29.9,N/A,,Clear,260,2013-04-01 00:53:00
6:53 PM,73.9,37.9,27,29.88,10.0,West,23.0,32.2,N/A,,Clear,260,2013-04-01 01:53:00
7:53 PM,71.1,42.1,35,29.91,10.0,West,13.8,-,N/A,,Clear,260,2013-04-01 02:53:00
8:53 PM,68.0,41.0,37,29.93,10.0,NW,6.9,-,N/A,,Clear,310,2013-04-01 03:53:00
9:53 PM,68.0,41.0,37,29.94,10.0,WNW,15.0,24.2,N/A,,Clear,290,2013-04-01 04:53:00
10:53 PM,66.9,39.9,37,29.94,10.0,WNW,17.3,28.8,N/A,,Clear,290,2013-04-01 05:53:00
11:53 PM,64.9,41.0,42,29.94,10.0,WNW,18.4,25.3,N/A,,Clear,300,2013-04-01 06:53:00